createdAt,value
2023-05-05T00:01:31.068Z,100.00
2023-05-05T00:08:13.300Z,100.00
2023-05-05T00:10:40.533Z,100.00
2023-05-05T00:13:07.559Z,100.00
2023-05-05T00:15:34.558Z,100.00
2023-05-05T00:18:01.935Z,100.00
2023-05-05T00:20:29.101Z,100.00
2023-05-05T00:22:56.051Z,100.00
2023-05-05T00:25:23.004Z,100.00
2023-05-05T00:27:49.940Z,100.00
2023-05-05T00:30:17.466Z,100.00
2023-05-05T00:32:44.560Z,100.00
2023-05-05T00:35:11.642Z,100.00
2023-05-05T00:37:38.659Z,100.00
2023-05-05T00:40:06.965Z,100.00
2023-05-05T00:42:45.136Z,100.00
2023-05-05T00:45:13.086Z,100.00
2023-05-05T00:47:40.046Z,100.00
2023-05-05T00:50:09.288Z,100.00
2023-05-05T00:52:37.153Z,100.00
2023-05-05T00:55:05.063Z,100.00
2023-05-05T00:57:32.645Z,100.00
2023-05-05T00:59:59.822Z,100.00
2023-05-05T01:02:27.224Z,100.00
2023-05-05T01:04:54.588Z,100.00
2023-05-05T01:07:37.517Z,100.00
2023-05-05T01:10:26.464Z,100.00
2023-05-05T01:13:12.445Z,100.00
2023-05-05T01:15:46.722Z,100.00
2023-05-05T01:18:31.786Z,100.00
2023-05-05T01:21:02.121Z,100.00
2023-05-05T01:23:56.234Z,100.00
2023-05-05T01:26:48.450Z,100.00
2023-05-05T01:29:46.938Z,100.00
2023-05-05T01:32:15.128Z,100.00
2023-05-05T01:34:45.429Z,100.00
2023-05-05T01:37:15.699Z,100.00
2023-05-05T01:39:43.118Z,100.00
2023-05-05T01:42:13.977Z,100.00
2023-05-05T01:44:44.703Z,100.00
2023-05-05T01:47:16.167Z,100.00
2023-05-05T01:49:47.487Z,100.00
2023-05-05T01:52:17.685Z,100.00
2023-05-05T01:54:45.381Z,100.00
2023-05-05T01:57:12.379Z,100.00
2023-05-05T01:59:39.751Z,100.00
2023-05-05T02:02:08.732Z,100.00
2023-05-05T02:04:36.605Z,100.00
2023-05-05T02:07:03.883Z,100.00
2023-05-05T02:09:30.782Z,100.00
2023-05-05T02:11:58.545Z,100.00
2023-05-05T02:14:27.238Z,100.00
2023-05-05T02:16:55.606Z,100.00
2023-05-05T02:19:22.766Z,100.00
2023-05-05T02:21:49.769Z,100.00
2023-05-05T02:24:16.792Z,100.00
2023-05-05T02:26:43.692Z,100.00
2023-05-05T02:29:21.814Z,100.00
2023-05-05T02:31:54.118Z,100.00
2023-05-05T02:34:28.373Z,100.00
2023-05-05T02:36:58.170Z,100.00
2023-05-05T02:39:28.796Z,100.00
2023-05-05T02:41:55.774Z,100.00
2023-05-05T02:44:25.395Z,100.00
2023-05-05T02:46:53.904Z,100.00
2023-05-05T02:49:21.207Z,100.00
2023-05-05T02:51:49.252Z,100.00
2023-05-05T02:54:21.652Z,100.00
2023-05-05T02:56:51.854Z,100.00
2023-05-05T02:59:31.401Z,100.00
2023-05-05T03:02:14.846Z,100.00
2023-05-05T03:04:55.358Z,100.00
2023-05-05T03:07:30.377Z,100.00
2023-05-05T03:10:03.731Z,100.00
2023-05-05T03:12:36.449Z,100.00
2023-05-05T03:15:12.317Z,100.00
2023-05-05T03:17:40.021Z,100.00
2023-05-05T03:20:07.892Z,100.00
2023-05-05T03:22:37.664Z,100.00
2023-05-05T03:25:06.311Z,100.00
2023-05-05T03:27:33.279Z,100.00
2023-05-05T03:30:00.428Z,100.00
2023-05-05T03:32:27.762Z,100.00
2023-05-05T03:34:55.176Z,100.00
2023-05-05T03:37:25.831Z,100.00
2023-05-05T03:39:53.493Z,100.00
2023-05-05T03:42:22.388Z,100.00
2023-05-05T03:44:49.469Z,100.00
2023-05-05T03:47:16.773Z,100.00
2023-05-05T03:49:45.278Z,100.00
2023-05-05T03:52:13.845Z,100.00
2023-05-05T03:54:43.241Z,100.00
2023-05-05T03:57:10.228Z,100.00
2023-05-05T03:59:37.197Z,100.00
2023-05-05T04:02:04.634Z,100.00
2023-05-05T04:04:31.666Z,100.00
2023-05-05T04:06:58.924Z,100.00
2023-05-05T04:09:26.048Z,100.00
2023-05-05T04:11:53.393Z,100.00
2023-05-05T04:14:20.749Z,100.00
2023-05-05T04:16:47.792Z,100.00
2023-05-05T04:19:14.952Z,100.00
2023-05-05T04:21:41.934Z,100.00
2023-05-05T04:24:09.140Z,100.00
2023-05-05T04:26:36.178Z,100.00
2023-05-05T04:29:03.324Z,100.00
2023-05-05T04:31:32.171Z,100.00
2023-05-05T04:33:59.514Z,100.00
2023-05-05T04:36:26.532Z,100.00
2023-05-05T04:38:54.540Z,100.00
2023-05-05T04:41:21.907Z,100.00
2023-05-05T04:43:49.170Z,100.00
2023-05-05T04:46:16.330Z,100.00
2023-05-05T04:48:43.281Z,100.00
2023-05-05T04:51:10.559Z,100.00
2023-05-05T04:53:37.566Z,100.00
2023-05-05T04:56:04.746Z,100.00
2023-05-05T04:58:32.249Z,100.00
2023-05-05T05:00:59.650Z,100.00
2023-05-05T05:03:26.779Z,100.00
2023-05-05T05:05:53.862Z,100.00
2023-05-05T05:08:20.887Z,100.00
2023-05-05T05:10:47.900Z,100.00
2023-05-05T05:13:15.101Z,100.00
2023-05-05T05:15:42.410Z,100.00
2023-05-05T05:18:09.381Z,100.00
2023-05-05T05:20:36.533Z,100.00
2023-05-05T05:23:04.634Z,100.00
2023-05-05T05:25:33.588Z,100.00
2023-05-05T05:28:09.371Z,100.00
2023-05-05T05:30:40.547Z,100.00
2023-05-05T05:33:07.989Z,100.00
2023-05-05T05:35:35.097Z,100.00
2023-05-05T05:38:02.196Z,100.00
2023-05-05T05:40:29.308Z,100.00
2023-05-05T05:42:56.794Z,100.00
2023-05-05T05:45:24.848Z,100.00
2023-05-05T05:47:52.347Z,100.00
2023-05-05T05:50:19.497Z,100.00
2023-05-05T05:52:46.713Z,100.00
2023-05-05T05:55:13.715Z,100.00
2023-05-05T05:57:41.432Z,100.00
2023-05-05T06:00:09.813Z,100.00
2023-05-05T06:02:41.561Z,100.00
2023-05-05T06:05:11.292Z,100.00
2023-05-05T06:07:38.516Z,100.00
2023-05-05T06:10:22.955Z,100.00
2023-05-05T06:12:54.216Z,100.00
2023-05-05T06:15:21.445Z,100.00
2023-05-05T06:17:48.717Z,100.00
2023-05-05T06:20:15.916Z,100.00
2023-05-05T06:22:42.968Z,100.00
2023-05-05T06:25:11.118Z,100.00
2023-05-05T06:27:38.492Z,100.00
2023-05-05T06:30:07.321Z,100.00
2023-05-05T06:32:34.753Z,100.00
2023-05-05T06:35:01.782Z,100.00
2023-05-05T06:37:28.773Z,100.00
2023-05-05T06:39:56.872Z,100.00
2023-05-05T06:42:23.925Z,100.00
2023-05-05T06:44:52.113Z,100.00
2023-05-05T06:47:19.085Z,100.00
2023-05-05T06:49:46.057Z,100.00
2023-05-05T06:52:13.094Z,100.00
2023-05-05T06:54:40.090Z,100.00
2023-05-05T06:57:07.151Z,100.00
2023-05-05T06:59:34.151Z,99.30
2023-05-05T07:02:01.582Z,95.93
2023-05-05T07:04:28.631Z,94.48
2023-05-05T07:06:55.705Z,88.09
2023-05-05T07:09:22.658Z,85.44
2023-05-05T07:11:49.807Z,83.76
2023-05-05T07:14:16.742Z,84.94
2023-05-05T07:16:44.082Z,85.76
2023-05-05T07:19:11.031Z,84.95
2023-05-05T07:21:39.774Z,83.02
2023-05-05T07:24:07.190Z,81.18
2023-05-05T07:26:34.220Z,80.13
2023-05-05T07:29:02.516Z,79.34
2023-05-05T07:31:29.651Z,78.11
2023-05-05T07:33:56.901Z,76.45
2023-05-05T07:36:24.059Z,75.60
2023-05-05T07:38:51.160Z,75.96
2023-05-05T07:41:18.611Z,76.11
2023-05-05T07:43:46.175Z,76.29
2023-05-05T07:46:13.964Z,76.78
2023-05-05T07:48:41.822Z,77.03
2023-05-05T07:51:09.387Z,75.71
2023-05-05T07:53:37.111Z,74.09
2023-05-05T07:56:04.280Z,71.62
2023-05-05T07:58:31.345Z,69.43
2023-05-05T08:00:58.319Z,69.43
2023-05-05T08:03:25.538Z,69.43
2023-05-05T08:05:56.507Z,68.60
2023-05-05T08:08:25.067Z,68.65
2023-05-05T08:10:53.394Z,67.10
2023-05-05T08:13:20.825Z,65.52
2023-05-05T08:15:47.942Z,64.61
2023-05-05T08:18:15.113Z,63.81
2023-05-05T08:20:42.183Z,63.31
2023-05-05T08:23:09.222Z,63.81
2023-05-05T08:25:36.468Z,63.69
2023-05-05T08:28:03.475Z,63.75
2023-05-05T08:30:30.841Z,64.26
2023-05-05T08:32:57.925Z,65.42
2023-05-05T08:35:25.092Z,66.15
2023-05-05T08:37:52.100Z,65.43
2023-05-05T08:40:48.048Z,65.72
2023-05-05T08:43:15.911Z,65.97
2023-05-05T08:45:43.028Z,65.59
2023-05-05T08:48:10.356Z,65.07
2023-05-05T08:50:37.754Z,64.00
2023-05-05T08:53:12.043Z,62.82
2023-05-05T08:55:44.283Z,61.72
2023-05-05T08:58:11.285Z,62.31
2023-05-05T09:00:38.251Z,62.48
2023-05-05T09:03:05.383Z,62.74
2023-05-05T09:05:32.457Z,62.97
2023-05-05T09:07:59.380Z,61.84
2023-05-05T09:10:26.379Z,60.90
2023-05-05T09:12:53.482Z,59.70
2023-05-05T09:15:20.599Z,58.73
2023-05-05T09:17:47.689Z,59.19
2023-05-05T09:20:15.065Z,57.23
2023-05-05T09:22:46.398Z,56.89
2023-05-05T09:25:14.906Z,55.90
2023-05-05T09:27:46.343Z,54.32
2023-05-05T09:30:18.089Z,54.01
2023-05-05T09:32:49.231Z,52.48
2023-05-05T09:35:16.721Z,52.20
2023-05-05T09:37:43.780Z,51.83
2023-05-05T09:40:12.030Z,52.04
2023-05-05T09:42:39.682Z,52.17
2023-05-05T09:45:27.600Z,53.23
2023-05-05T09:47:59.181Z,53.94
2023-05-05T09:50:30.744Z,54.11
2023-05-05T09:52:59.977Z,54.28
2023-05-05T09:55:27.234Z,53.65
2023-05-05T09:57:54.342Z,53.72
2023-05-05T10:00:21.412Z,52.30
2023-05-05T10:02:48.791Z,52.08
2023-05-05T10:05:16.924Z,51.71
2023-05-05T10:07:46.153Z,49.92
2023-05-05T10:10:15.101Z,49.28
2023-05-05T10:12:42.388Z,48.45
2023-05-05T10:15:10.622Z,47.80
2023-05-05T10:18:02.167Z,47.38
2023-05-05T10:20:29.857Z,47.11
2023-05-05T10:22:56.964Z,46.88
2023-05-05T10:25:31.495Z,46.47
2023-05-05T10:28:00.148Z,46.51
2023-05-05T10:30:30.066Z,46.89
2023-05-05T10:33:30.724Z,46.93
2023-05-05T10:36:01.502Z,47.29
2023-05-05T10:38:29.987Z,47.21
2023-05-05T10:41:01.247Z,46.59
2023-05-05T10:43:29.566Z,46.83
2023-05-05T10:45:56.690Z,46.98
2023-05-05T10:48:48.564Z,47.18
2023-05-05T10:51:38.725Z,47.63
2023-05-05T10:54:21.030Z,48.02
2023-05-05T10:56:48.078Z,48.29
2023-05-05T10:59:39.712Z,48.23
2023-05-05T11:02:26.555Z,47.91
2023-05-05T11:05:21.196Z,47.88
2023-05-05T11:07:52.100Z,47.77
2023-05-05T11:10:23.849Z,46.39
2023-05-05T11:13:03.122Z,46.39
2023-05-05T11:15:30.560Z,46.41
2023-05-05T11:17:58.310Z,46.06
2023-05-05T11:20:57.860Z,46.20
2023-05-05T11:23:25.798Z,46.48
2023-05-05T11:25:53.290Z,46.43
2023-05-05T11:28:24.484Z,46.53
2023-05-05T11:31:00.604Z,46.58
2023-05-05T11:33:37.833Z,47.13
2023-05-05T11:36:08.827Z,46.71
2023-05-05T11:39:03.811Z,46.54
2023-05-05T11:41:31.599Z,45.92
2023-05-05T11:44:17.114Z,46.34
2023-05-05T11:46:53.314Z,46.53
2023-05-05T11:49:26.800Z,46.25
2023-05-05T11:51:57.678Z,46.58
2023-05-05T11:54:25.222Z,46.37
2023-05-05T11:56:53.868Z,46.08
2023-05-05T11:59:20.889Z,45.87
2023-05-05T12:01:47.961Z,45.59
2023-05-05T12:04:15.615Z,45.91
2023-05-05T12:06:43.042Z,45.73
2023-05-05T12:09:20.128Z,45.92
2023-05-05T12:11:50.223Z,45.96
2023-05-05T12:14:17.141Z,45.76
2023-05-05T12:17:06.633Z,45.61
2023-05-05T12:19:33.815Z,45.40
2023-05-05T12:22:01.277Z,45.42
2023-05-05T12:24:28.494Z,45.50
2023-05-05T12:26:55.548Z,45.55
2023-05-05T12:29:26.928Z,45.73
2023-05-05T12:31:54.064Z,46.11
2023-05-05T12:34:21.536Z,46.24
2023-05-05T12:36:48.467Z,45.72
2023-05-05T12:39:15.483Z,45.25
2023-05-05T12:41:42.694Z,45.03
2023-05-05T12:44:09.798Z,44.86
2023-05-05T12:46:46.855Z,44.23
2023-05-05T12:49:14.024Z,44.26
2023-05-05T12:51:52.963Z,44.38
2023-05-05T12:54:19.897Z,44.30
2023-05-05T12:56:47.385Z,44.33
2023-05-05T12:59:23.617Z,44.32
2023-05-05T13:01:55.818Z,44.33
2023-05-05T13:04:27.548Z,44.06
2023-05-05T13:07:11.209Z,44.36
2023-05-05T13:09:38.168Z,44.69
2023-05-05T13:12:05.524Z,44.95
2023-05-05T13:14:32.682Z,44.96
2023-05-05T13:16:59.676Z,44.89
2023-05-05T13:19:27.742Z,44.97
2023-05-05T13:21:55.175Z,45.10
2023-05-05T13:24:31.540Z,44.55
2023-05-05T13:27:05.748Z,43.95
2023-05-05T13:29:33.713Z,43.92
2023-05-05T13:32:00.847Z,43.82
2023-05-05T13:34:28.321Z,43.81
2023-05-05T13:36:55.392Z,43.84
2023-05-05T13:39:22.445Z,43.01
2023-05-05T13:41:49.487Z,42.30
2023-05-05T13:44:16.501Z,42.31
2023-05-05T13:46:43.584Z,41.55
2023-05-05T13:49:10.662Z,41.32
2023-05-05T13:51:39.192Z,41.60
2023-05-05T13:54:06.910Z,42.61
2023-05-05T13:56:34.499Z,43.18
2023-05-05T13:59:02.545Z,42.93
2023-05-05T14:01:30.210Z,42.96
2023-05-05T14:03:57.737Z,42.82
2023-05-05T14:06:25.205Z,43.03
2023-05-05T14:08:52.149Z,43.59
2023-05-05T14:11:20.979Z,42.78
2023-05-05T14:13:48.373Z,41.92
2023-05-05T14:16:15.678Z,42.24
2023-05-05T14:18:42.762Z,42.22
2023-05-05T14:21:09.808Z,41.31
2023-05-05T14:23:37.081Z,41.82
2023-05-05T14:26:04.219Z,42.97
2023-05-05T14:28:31.242Z,43.27
2023-05-05T14:30:58.468Z,42.74
2023-05-05T14:33:25.940Z,42.50
2023-05-05T14:35:52.966Z,42.89
2023-05-05T14:38:19.923Z,43.14
2023-05-05T14:40:47.018Z,42.97
2023-05-05T14:43:14.053Z,43.11
2023-05-05T14:45:41.503Z,43.46
2023-05-05T14:48:08.582Z,43.42
2023-05-05T14:50:35.582Z,43.56
2023-05-05T14:53:02.676Z,43.52
2023-05-05T14:55:29.864Z,43.33
2023-05-05T14:57:57.025Z,43.02
2023-05-05T15:00:26.658Z,42.88
2023-05-05T15:02:53.849Z,42.61
2023-05-05T15:05:20.940Z,42.13
2023-05-05T15:07:47.934Z,41.61
2023-05-05T15:10:15.171Z,41.40
2023-05-05T15:12:43.018Z,41.40
2023-05-05T15:15:10.752Z,41.25
2023-05-05T15:17:38.980Z,41.49
2023-05-05T15:20:06.927Z,41.74
2023-05-05T15:22:33.997Z,41.94
2023-05-05T15:25:01.505Z,42.23
2023-05-05T15:27:29.428Z,42.45
2023-05-05T15:29:56.409Z,42.47
2023-05-05T15:32:23.388Z,42.62
2023-05-05T15:34:50.733Z,42.10
2023-05-05T15:37:17.898Z,41.36
2023-05-05T15:39:45.029Z,42.06
2023-05-05T15:42:11.953Z,42.66
2023-05-05T15:44:39.014Z,42.74
2023-05-05T15:47:06.669Z,42.97
2023-05-05T15:49:33.876Z,43.12
2023-05-05T15:52:00.892Z,43.49
2023-05-05T15:54:27.892Z,43.59
2023-05-05T15:56:55.184Z,43.82
2023-05-05T15:59:22.317Z,44.84
2023-05-05T16:01:49.356Z,45.17
2023-05-05T16:04:16.392Z,45.50
2023-05-05T16:06:43.479Z,46.08
2023-05-05T16:09:10.615Z,46.38
2023-05-05T16:11:37.948Z,47.02
2023-05-05T16:14:04.935Z,47.69
2023-05-05T16:16:32.141Z,48.12
2023-05-05T16:18:59.265Z,48.44
2023-05-05T16:21:26.340Z,48.42
2023-05-05T16:23:53.536Z,47.40
2023-05-05T16:26:20.625Z,45.84
2023-05-05T16:28:47.724Z,44.66
2023-05-05T16:31:14.844Z,43.88
2023-05-05T16:33:43.816Z,44.18
2023-05-05T16:36:12.258Z,44.44
2023-05-05T16:38:40.061Z,44.27
2023-05-05T16:41:07.309Z,44.34
2023-05-05T16:43:35.153Z,44.48
2023-05-05T16:46:02.220Z,44.56
2023-05-05T16:48:29.643Z,44.84
2023-05-05T16:50:57.913Z,45.00
2023-05-05T16:53:25.303Z,44.98
2023-05-05T16:55:53.104Z,45.10
2023-05-05T16:58:23.158Z,45.14
2023-05-05T17:00:50.544Z,45.47
2023-05-05T17:03:18.294Z,45.66
2023-05-05T17:05:47.203Z,45.87
2023-05-05T17:08:16.162Z,45.98
2023-05-05T17:10:43.777Z,46.34
2023-05-05T17:13:10.958Z,46.37
2023-05-05T17:15:38.286Z,46.51
2023-05-05T17:18:05.984Z,46.86
2023-05-05T17:20:33.559Z,46.89
2023-05-05T17:23:02.289Z,47.14
2023-05-05T17:25:29.331Z,47.50
2023-05-05T17:27:56.343Z,47.91
2023-05-05T17:30:23.572Z,48.23
2023-05-05T17:32:50.685Z,48.73
2023-05-05T17:35:17.818Z,49.17
2023-05-05T17:37:44.916Z,49.45
2023-05-05T17:40:12.067Z,49.65
2023-05-05T17:42:39.175Z,50.07
2023-05-05T17:45:06.847Z,50.40
2023-05-05T17:47:34.205Z,50.57
2023-05-05T17:50:01.467Z,50.87
2023-05-05T17:52:28.500Z,51.04
2023-05-05T17:54:55.804Z,51.34
2023-05-05T17:57:23.129Z,51.70
2023-05-05T17:59:50.550Z,51.92
2023-05-05T18:02:19.255Z,52.04
2023-05-05T18:04:46.577Z,52.09
2023-05-05T18:07:14.809Z,52.33
2023-05-05T18:09:42.249Z,52.50
2023-05-05T18:12:09.253Z,52.54
2023-05-05T18:14:36.358Z,52.86
2023-05-05T18:17:03.534Z,53.04
2023-05-05T18:19:30.639Z,53.10
2023-05-05T18:21:57.586Z,53.35
2023-05-05T18:24:24.648Z,53.51
2023-05-05T18:26:52.221Z,53.55
2023-05-05T18:29:19.686Z,53.93
2023-05-05T18:31:49.619Z,54.02
2023-05-05T18:34:16.947Z,54.09
2023-05-05T18:36:44.104Z,54.07
2023-05-05T18:39:11.582Z,53.84
2023-05-05T18:41:38.561Z,53.73
2023-05-05T18:44:05.460Z,53.28
2023-05-05T18:46:32.505Z,53.10
2023-05-05T18:49:00.626Z,52.74
2023-05-05T18:51:28.465Z,52.75
2023-05-05T18:53:55.437Z,52.53
2023-05-05T18:56:29.424Z,52.89
2023-05-05T18:58:56.401Z,52.85
2023-05-05T19:01:23.604Z,53.24
2023-05-05T19:03:50.718Z,53.40
2023-05-05T19:06:17.896Z,53.75
2023-05-05T19:08:45.698Z,53.89
2023-05-05T19:11:14.830Z,54.29
2023-05-05T19:13:41.876Z,54.47
2023-05-05T19:16:08.849Z,54.88
2023-05-05T19:18:35.807Z,55.16
2023-05-05T19:21:02.739Z,55.44
2023-05-05T19:23:29.654Z,55.87
2023-05-05T19:25:56.552Z,56.09
2023-05-05T19:28:23.645Z,56.28
2023-05-05T19:30:51.910Z,56.74
2023-05-05T19:33:18.934Z,56.95
2023-05-05T19:35:45.997Z,57.31
2023-05-05T19:38:12.935Z,57.60
2023-05-05T19:40:39.902Z,57.80
2023-05-05T19:43:07.266Z,57.98
2023-05-05T19:45:34.365Z,58.40
2023-05-05T19:48:01.744Z,58.64
2023-05-05T19:50:30.462Z,59.14
2023-05-05T19:52:57.885Z,59.19
2023-05-05T19:55:25.164Z,59.67
2023-05-05T19:57:52.164Z,60.11
2023-05-05T20:00:19.920Z,60.75
2023-05-05T20:02:48.691Z,61.36
2023-05-05T20:05:17.705Z,62.05
2023-05-05T20:07:46.410Z,62.47
2023-05-05T20:10:13.641Z,63.10
2023-05-05T20:12:47.919Z,63.70
2023-05-05T20:15:18.918Z,64.30
2023-05-05T20:17:47.232Z,65.18
2023-05-05T20:20:19.026Z,65.76
2023-05-05T20:22:46.177Z,66.82
2023-05-05T20:25:14.812Z,67.89
2023-05-05T20:27:42.225Z,69.54
2023-05-05T20:30:10.741Z,71.26
2023-05-05T20:32:38.149Z,72.48
2023-05-05T20:35:06.438Z,74.13
2023-05-05T20:37:33.481Z,75.33
2023-05-05T20:40:00.378Z,76.24
2023-05-05T20:42:27.882Z,77.06
2023-05-05T20:44:55.398Z,77.86
2023-05-05T20:47:22.401Z,79.45
2023-05-05T20:49:49.491Z,80.88
2023-05-05T20:52:16.613Z,82.03
2023-05-05T20:54:43.625Z,82.67
2023-05-05T20:57:10.980Z,83.87
2023-05-05T20:59:38.056Z,84.71
2023-05-05T21:02:05.004Z,86.38
2023-05-05T21:04:32.137Z,88.08
2023-05-05T21:06:59.175Z,89.06
2023-05-05T21:09:26.274Z,90.11
2023-05-05T21:11:53.472Z,92.25
2023-05-05T21:14:20.631Z,92.94
2023-05-05T21:16:48.505Z,95.09
2023-05-05T21:19:16.486Z,96.75
2023-05-05T21:21:43.450Z,98.27
2023-05-05T21:24:10.656Z,99.07
2023-05-05T21:26:37.779Z,99.32
2023-05-05T21:29:05.016Z,99.59
2023-05-05T21:31:32.116Z,99.95
2023-05-05T21:33:59.245Z,100.00
2023-05-05T21:36:27.476Z,100.00
2023-05-05T21:38:56.650Z,100.00
2023-05-05T21:41:24.690Z,100.00
2023-05-05T21:43:51.666Z,100.00
2023-05-05T21:46:18.712Z,100.00
2023-05-05T21:48:46.730Z,100.00
2023-05-05T21:51:13.850Z,100.00
2023-05-05T21:53:40.983Z,100.00
2023-05-05T21:56:10.702Z,100.00
2023-05-05T21:58:37.688Z,100.00
2023-05-05T22:01:04.856Z,100.00
2023-05-05T22:03:32.078Z,100.00
2023-05-05T22:05:59.115Z,100.00
2023-05-05T22:08:26.948Z,100.00
2023-05-05T22:10:54.016Z,100.00
2023-05-05T22:13:21.104Z,100.00
2023-05-05T22:15:48.286Z,100.00
2023-05-05T22:18:15.689Z,100.00
2023-05-05T22:20:42.778Z,100.00
2023-05-05T22:23:09.834Z,100.00
2023-05-05T22:25:36.826Z,100.00
2023-05-05T22:28:04.331Z,100.00
2023-05-05T22:30:31.740Z,100.00
2023-05-05T22:32:58.866Z,100.00
2023-05-05T22:35:25.902Z,100.00
2023-05-05T22:37:53.007Z,100.00
2023-05-05T22:40:20.286Z,100.00
2023-05-05T22:42:47.398Z,100.00
2023-05-05T22:45:14.454Z,100.00
2023-05-05T22:47:41.572Z,100.00
2023-05-05T22:50:09.177Z,100.00
2023-05-05T22:52:36.382Z,100.00
2023-05-05T22:55:03.627Z,100.00
2023-05-05T22:57:30.768Z,100.00
2023-05-05T22:59:57.771Z,100.00
2023-05-05T23:02:26.729Z,100.00
2023-05-05T23:04:53.815Z,100.00
2023-05-05T23:07:20.966Z,100.00
2023-05-05T23:09:48.112Z,100.00
2023-05-05T23:12:15.112Z,100.00
2023-05-05T23:14:42.170Z,100.00
2023-05-05T23:17:09.314Z,100.00
2023-05-05T23:19:36.659Z,100.00
2023-05-05T23:22:03.990Z,100.00
2023-05-05T23:24:31.094Z,100.00
2023-05-05T23:26:59.194Z,100.00
2023-05-05T23:29:26.641Z,100.00
2023-05-05T23:31:54.264Z,100.00
2023-05-05T23:34:21.206Z,100.00
2023-05-05T23:36:48.226Z,100.00
2023-05-05T23:39:15.258Z,100.00
2023-05-05T23:41:42.455Z,100.00
2023-05-05T23:44:09.621Z,100.00
2023-05-05T23:46:36.743Z,100.00
2023-05-05T23:49:04.309Z,100.00
2023-05-05T23:51:31.759Z,100.00
2023-05-05T23:53:59.051Z,100.00
2023-05-05T23:56:26.451Z,100.00
2023-05-05T23:58:53.930Z,100.00
